createdAt,value
2023-04-22T00:02:24.538Z,5.28
2023-04-22T00:07:21.212Z,5.03
2023-04-22T00:12:17.646Z,5.22
2023-04-22T00:17:14.147Z,5.18
2023-04-22T00:22:11.130Z,5.32
2023-04-22T00:27:08.047Z,5.20
2023-04-22T00:32:04.516Z,5.22
2023-04-22T00:37:01.265Z,5.18
2023-04-22T00:41:58.060Z,5.97
2023-04-22T00:46:55.535Z,4.97
2023-04-22T00:51:52.098Z,5.45
2023-04-22T00:56:49.011Z,5.35
2023-04-22T01:01:45.457Z,5.25
2023-04-22T01:06:44.034Z,5.38
2023-04-22T01:11:40.872Z,6.30
2023-04-22T01:16:38.920Z,5.07
2023-04-22T01:21:35.633Z,5.50
2023-04-22T01:26:32.210Z,5.85
2023-04-22T01:31:29.807Z,5.40
2023-04-22T01:36:26.255Z,4.97
2023-04-22T01:41:23.018Z,5.35
2023-04-22T01:46:19.548Z,5.57
2023-04-22T01:51:23.710Z,5.75
2023-04-22T01:56:20.132Z,5.78
2023-04-22T02:01:16.613Z,6.13
2023-04-22T02:06:13.068Z,5.68
2023-04-22T02:11:09.963Z,6.20
2023-04-22T02:16:07.434Z,5.50
2023-04-22T02:21:04.049Z,5.60
2023-04-22T02:26:00.685Z,5.75
2023-04-22T02:30:57.314Z,5.93
2023-04-22T02:35:53.720Z,6.35
2023-04-22T02:40:50.176Z,5.85
2023-04-22T02:45:46.646Z,7.20
2023-04-22T02:50:43.094Z,6.15
2023-04-22T02:55:41.186Z,7.00
2023-04-22T03:00:37.774Z,5.93
2023-04-22T03:05:34.242Z,6.45
2023-04-22T03:10:30.637Z,7.05
2023-04-22T03:15:27.022Z,6.25
2023-04-22T03:20:23.545Z,6.65
2023-04-22T03:25:20.007Z,6.00
2023-04-22T03:30:16.735Z,7.38
2023-04-22T03:35:13.386Z,7.22
2023-04-22T03:40:10.271Z,6.97
2023-04-22T03:45:07.284Z,7.53
2023-04-22T03:50:03.825Z,7.18
2023-04-22T03:55:00.303Z,6.95
2023-04-22T03:59:56.774Z,6.72
2023-04-22T04:04:53.739Z,7.50
2023-04-22T04:09:50.665Z,7.50
2023-04-22T04:14:47.146Z,7.38
2023-04-22T04:19:43.619Z,7.20
2023-04-22T04:24:42.088Z,8.30
2023-04-22T04:29:39.594Z,8.18
2023-04-22T04:34:37.542Z,7.95
2023-04-22T04:39:33.944Z,9.77
2023-04-22T04:44:31.780Z,8.10
2023-04-22T04:49:30.598Z,7.43
2023-04-22T04:54:27.046Z,7.90
2023-04-22T04:59:23.472Z,7.75
2023-04-22T05:04:20.001Z,7.70
2023-04-22T05:09:16.918Z,7.63
2023-04-22T05:14:13.329Z,8.63
2023-04-22T05:19:09.763Z,8.18
2023-04-22T05:24:06.376Z,7.97
2023-04-22T05:29:02.954Z,7.70
2023-04-22T05:33:59.365Z,8.38
2023-04-22T05:38:55.788Z,8.75
2023-04-22T05:43:52.458Z,7.78
2023-04-22T05:48:49.343Z,7.88
2023-04-22T05:53:46.068Z,8.30
2023-04-22T05:58:42.513Z,8.70
2023-04-22T06:03:39.614Z,8.80
2023-04-22T06:08:36.210Z,9.07
2023-04-22T06:13:32.633Z,8.70
2023-04-22T06:18:29.541Z,8.70
2023-04-22T06:23:26.012Z,8.32
2023-04-22T06:28:22.477Z,8.60
2023-04-22T06:33:18.854Z,9.05
2023-04-22T06:38:15.344Z,8.32
2023-04-22T06:43:11.790Z,9.43
2023-04-22T06:48:08.185Z,9.15
2023-04-22T06:53:04.650Z,9.15
2023-04-22T06:58:01.241Z,9.90
2023-04-22T07:02:57.848Z,9.07
2023-04-22T07:07:54.431Z,8.98
2023-04-22T07:12:50.885Z,8.82
2023-04-22T07:17:47.380Z,8.52
2023-04-22T07:22:43.808Z,9.10
2023-04-22T07:27:40.199Z,8.82
2023-04-22T07:32:36.692Z,9.15
2023-04-22T07:37:33.138Z,9.63
2023-04-22T07:42:29.579Z,8.68
2023-04-22T07:47:26.038Z,8.77
2023-04-22T07:52:22.446Z,8.68
2023-04-22T07:57:22.122Z,8.65
2023-04-22T08:02:18.835Z,9.02
2023-04-22T08:07:30.889Z,9.07
2023-04-22T08:12:29.712Z,8.73
2023-04-22T08:17:26.554Z,8.95
2023-04-22T08:22:23.919Z,9.40
2023-04-22T08:27:21.920Z,8.73
2023-04-22T08:32:19.760Z,8.25
2023-04-22T08:37:16.198Z,8.88
2023-04-22T08:42:13.987Z,9.60
2023-04-22T08:47:11.150Z,9.07
2023-04-22T08:52:09.390Z,8.60
2023-04-22T08:57:07.306Z,9.07
2023-04-22T09:02:05.393Z,7.95
2023-04-22T09:07:02.993Z,9.20
2023-04-22T09:11:59.445Z,9.13
2023-04-22T09:16:58.112Z,9.55
2023-04-22T09:21:57.956Z,9.55
2023-04-22T09:26:56.579Z,8.82
2023-04-22T09:31:53.010Z,9.80
2023-04-22T09:36:51.306Z,8.80
2023-04-22T09:41:54.701Z,9.15
2023-04-22T09:46:51.192Z,8.77
2023-04-22T09:51:49.835Z,8.68
2023-04-22T09:56:53.708Z,8.40
2023-04-22T10:01:53.023Z,8.48
2023-04-22T10:06:49.959Z,9.15
2023-04-22T10:11:47.403Z,8.75
2023-04-22T10:16:46.242Z,9.20
2023-04-22T10:21:46.400Z,9.13
2023-04-22T10:26:49.061Z,8.93
2023-04-22T10:32:11.111Z,8.55
2023-04-22T10:37:11.486Z,8.32
2023-04-22T10:42:19.565Z,7.38
2023-04-22T10:47:28.973Z,8.20
2023-04-22T10:52:29.479Z,8.52
2023-04-22T10:57:37.421Z,8.00
2023-04-22T11:02:37.091Z,8.35
2023-04-22T11:07:35.569Z,7.72
2023-04-22T11:12:34.792Z,8.25
2023-04-22T11:17:31.466Z,7.90
2023-04-22T11:22:28.024Z,8.50
2023-04-22T11:27:30.269Z,8.20
2023-04-22T11:32:27.725Z,7.85
2023-04-22T11:37:24.801Z,7.40
2023-04-22T11:42:22.629Z,7.03
2023-04-22T11:47:19.497Z,7.05
2023-04-22T11:52:15.907Z,7.28
2023-04-22T11:57:15.534Z,7.47
2023-04-22T12:02:12.036Z,7.10
2023-04-22T12:07:08.597Z,7.13
2023-04-22T12:12:05.219Z,7.35
2023-04-22T12:17:05.804Z,7.15
2023-04-22T12:22:02.340Z,7.70
2023-04-22T12:26:59.018Z,7.00
2023-04-22T12:31:55.454Z,7.53
2023-04-22T12:36:52.053Z,7.97
2023-04-22T12:41:50.953Z,7.07
2023-04-22T12:46:47.539Z,7.40
2023-04-22T12:51:43.932Z,7.30
2023-04-22T12:56:40.581Z,7.80
2023-04-22T13:01:36.993Z,7.25
2023-04-22T13:06:34.532Z,7.47
2023-04-22T13:11:30.956Z,7.30
2023-04-22T13:16:27.434Z,7.65
2023-04-22T13:21:23.889Z,7.15
2023-04-22T13:26:20.294Z,7.13
2023-04-22T13:31:16.848Z,6.93
2023-04-22T13:36:13.274Z,6.47
2023-04-22T13:41:09.807Z,7.20
2023-04-22T13:46:06.450Z,7.15
2023-04-22T13:51:02.985Z,6.75
2023-04-22T13:55:59.476Z,6.05
2023-04-22T14:00:55.966Z,7.68
2023-04-22T14:05:52.746Z,7.32
2023-04-22T14:10:49.289Z,6.65
2023-04-22T14:15:45.698Z,6.32
2023-04-22T14:20:43.117Z,7.05
2023-04-22T14:25:39.582Z,6.63
2023-04-22T14:30:36.590Z,6.35
2023-04-22T14:35:34.168Z,7.72
2023-04-22T14:40:30.648Z,6.28
2023-04-22T14:45:29.075Z,6.22
2023-04-22T14:50:25.846Z,6.65
2023-04-22T14:55:23.747Z,6.53
2023-04-22T15:00:20.818Z,6.40
2023-04-22T15:05:17.430Z,6.75
2023-04-22T15:10:14.357Z,7.35
2023-04-22T15:15:15.925Z,6.90
2023-04-22T15:20:13.302Z,7.00
2023-04-22T15:25:10.989Z,6.53
2023-04-22T15:30:08.546Z,6.80
2023-04-22T15:35:07.017Z,6.65
2023-04-22T15:40:05.780Z,6.68
2023-04-22T15:45:03.842Z,6.40
2023-04-22T15:50:06.560Z,6.95
2023-04-22T15:55:03.839Z,6.80
2023-04-22T16:00:11.031Z,6.72
2023-04-22T16:05:09.191Z,6.38
2023-04-22T16:10:06.550Z,6.03
2023-04-22T16:15:02.967Z,6.40
2023-04-22T16:19:59.448Z,6.05
2023-04-22T16:24:55.844Z,5.85
2023-04-22T16:29:52.224Z,6.22
2023-04-22T16:34:48.971Z,6.10
2023-04-22T16:39:45.705Z,6.47
2023-04-22T16:44:42.158Z,6.50
2023-04-22T16:49:38.908Z,6.18
2023-04-22T16:54:35.770Z,6.50
2023-04-22T16:59:32.304Z,6.10
2023-04-22T17:04:28.869Z,5.82
2023-04-22T17:09:25.476Z,6.13
2023-04-22T17:14:21.917Z,6.13
2023-04-22T17:19:18.299Z,6.63
2023-04-22T17:24:14.784Z,6.60
2023-04-22T17:29:11.241Z,5.68
2023-04-22T17:34:07.623Z,6.80
2023-04-22T17:39:04.084Z,5.72
2023-04-22T17:44:00.613Z,6.05
2023-04-22T17:48:57.084Z,5.88
2023-04-22T17:53:53.614Z,6.22
2023-04-22T17:58:51.116Z,5.85
2023-04-22T18:03:47.774Z,6.40
2023-04-22T18:08:44.463Z,5.60
2023-04-22T18:13:41.115Z,5.75
2023-04-22T18:18:38.648Z,6.35
2023-04-22T18:23:35.241Z,6.50
2023-04-22T18:28:31.715Z,6.65
2023-04-22T18:33:31.110Z,6.55
2023-04-22T18:38:27.800Z,6.28
2023-04-22T18:43:24.244Z,7.93
2023-04-22T18:48:22.282Z,6.72
2023-04-22T18:53:18.771Z,6.97
2023-04-22T18:58:15.220Z,6.32
2023-04-22T19:03:13.914Z,6.15
2023-04-22T19:08:10.493Z,5.82
2023-04-22T19:13:09.635Z,6.90
2023-04-22T19:18:12.548Z,7.07
2023-04-22T19:23:08.988Z,7.28
2023-04-22T19:28:05.550Z,6.55
2023-04-22T19:33:02.195Z,6.70
2023-04-22T19:38:00.687Z,7.05
2023-04-22T19:42:58.959Z,7.78
2023-04-22T19:47:56.644Z,6.78
2023-04-22T19:53:00.381Z,7.65
2023-04-22T19:58:00.249Z,7.57
2023-04-22T20:02:57.097Z,7.60
2023-04-22T20:07:58.003Z,7.40
2023-04-22T20:12:54.549Z,6.90
2023-04-22T20:17:51.530Z,7.07
2023-04-22T20:22:49.230Z,6.15
2023-04-22T20:27:46.088Z,6.60
2023-04-22T20:32:42.728Z,6.47
2023-04-22T20:37:39.821Z,6.70
2023-04-22T20:42:36.889Z,6.70
2023-04-22T20:47:33.545Z,6.55
2023-04-22T20:52:30.047Z,6.22
2023-04-22T20:57:26.510Z,6.07
2023-04-22T21:02:23.507Z,6.25
2023-04-22T21:07:21.022Z,6.15
2023-04-22T21:12:19.242Z,5.97
2023-04-22T21:17:32.171Z,6.60
2023-04-22T21:22:29.702Z,6.30
2023-04-22T21:27:26.748Z,6.47
2023-04-22T21:32:23.267Z,5.72
2023-04-22T21:37:19.842Z,6.13
2023-04-22T21:42:16.309Z,6.22
2023-04-22T21:47:12.881Z,6.72
2023-04-22T21:52:09.504Z,6.93
2023-04-22T21:57:05.965Z,7.00
2023-04-22T22:02:02.396Z,7.00
2023-04-22T22:06:58.850Z,7.45
2023-04-22T22:11:55.303Z,6.70
2023-04-22T22:16:53.692Z,6.43
2023-04-22T22:21:50.596Z,7.15
2023-04-22T22:26:46.988Z,7.45
2023-04-22T22:31:44.501Z,8.38
2023-04-22T22:36:41.526Z,7.38
2023-04-22T22:41:37.991Z,7.82
2023-04-22T22:46:34.817Z,8.23
2023-04-22T22:51:32.546Z,8.38
2023-04-22T22:56:29.036Z,8.13
2023-04-22T23:01:25.527Z,7.65
2023-04-22T23:06:22.064Z,8.52
2023-04-22T23:11:18.898Z,8.60
2023-04-22T23:16:15.678Z,8.13
2023-04-22T23:21:12.683Z,8.60
2023-04-22T23:26:09.523Z,8.88
2023-04-22T23:31:06.790Z,8.93
2023-04-22T23:36:06.134Z,9.35
2023-04-22T23:41:02.612Z,10.05
2023-04-22T23:45:59.162Z,9.90
2023-04-22T23:50:55.587Z,9.02
2023-04-22T23:55:52.400Z,8.68
